EKRN

Bornholm Airport

Rønne, Denmark
METAR EKRN 191120Z AUTO 15022KT 9999NDV BKN170/// 04/01 Q1019
Observed Flight Rules
Dec-19 @ 11:20 UTC (22 minutes ago)
Wind Clouds
150° at 22 knots
  • Broken at 17,000' AGL
Temperatures Readings
Current 4°C / 39°F
Dewpoint 1°C / 34°F
Humidity 81%
Altimeter 30.09" Hg
Pressure 1019 hPa
Elevation 16
METAR EKRN 191120Z AUTO 15022KT 9999NDV BKN170/// 04/01 Q1019
Observed Flight Rules
Dec-19 @ 11:20 UTC
(22 minutes ago)
Wind
150° at 22 knots
Clouds
  • Broken at 17,000' AGL
Temperature Dewpoint
4°C / 39°F 1°C / 34°F
Humidity Altimeter Pressure
81% 30.09" Hg 1019 hPa